sensor_id;sensor_type;location;lat;lon;timestamp;temperature;humidity
61092;DHT22;46975;51.898;11.444;2022-12-18T00:00:53;-8.60;99.90
61092;DHT22;46975;51.898;11.444;2022-12-18T00:03:20;-8.60;99.90
61092;DHT22;46975;51.898;11.444;2022-12-18T00:05:52;-8.60;99.90
61092;DHT22;46975;51.898;11.444;2022-12-18T00:08:18;-8.60;99.90
61092;DHT22;46975;51.898;11.444;2022-12-18T00:10:44;-8.60;99.90
61092;DHT22;46975;51.898;11.444;2022-12-18T00:13:11;-8.50;99.90
61092;DHT22;46975;51.898;11.444;2022-12-18T00:15:38;-8.50;99.90
61092;DHT22;46975;51.898;11.444;2022-12-18T00:18:04;-8.50;99.90
61092;DHT22;46975;51.898;11.444;2022-12-18T00:20:31;-8.40;99.90
61092;DHT22;46975;51.898;11.444;2022-12-18T00:22:56;-8.40;99.90
61092;DHT22;46975;51.898;11.444;2022-12-18T00:25:22;-8.40;99.90
61092;DHT22;46975;51.898;11.444;2022-12-18T00:27:48;-8.50;99.90
61092;DHT22;46975;51.898;11.444;2022-12-18T00:30:14;-8.50;99.90
61092;DHT22;46975;51.898;11.444;2022-12-18T00:32:40;-8.50;99.90
61092;DHT22;46975;51.898;11.444;2022-12-18T00:35:06;-8.50;99.90
61092;DHT22;46975;51.898;11.444;2022-12-18T00:37:36;-8.50;99.90
61092;DHT22;46975;51.898;11.444;2022-12-18T00:40:02;-8.60;99.90
61092;DHT22;46975;51.898;11.444;2022-12-18T00:42:28;-8.60;99.90
61092;DHT22;46975;51.898;11.444;2022-12-18T00:45:12;-8.70;99.90
61092;DHT22;46975;51.898;11.444;2022-12-18T00:47:38;-8.70;99.90
61092;DHT22;46975;51.898;11.444;2022-12-18T00:50:04;-8.70;99.90
61092;DHT22;46975;51.898;11.444;2022-12-18T00:52:30;-8.70;99.90
61092;DHT22;46975;51.898;11.444;2022-12-18T00:54:56;-8.80;99.90
61092;DHT22;46975;51.898;11.444;2022-12-18T00:57:21;-8.80;99.90
61092;DHT22;46975;51.898;11.444;2022-12-18T00:59:47;-8.90;99.90
61092;DHT22;46975;51.898;11.444;2022-12-18T01:02:13;-8.90;99.90
61092;DHT22;46975;51.898;11.444;2022-12-18T01:04:39;-9.00;99.90
61092;DHT22;46975;51.898;11.444;2022-12-18T01:07:04;-8.90;99.90
61092;DHT22;46975;51.898;11.444;2022-12-18T01:09:30;-8.90;99.90
61092;DHT22;46975;51.898;11.444;2022-12-18T01:11:56;-8.90;99.90
61092;DHT22;46975;51.898;11.444;2022-12-18T01:14:21;-8.80;99.90
61092;DHT22;46975;51.898;11.444;2022-12-18T01:16:47;-8.90;99.90
61092;DHT22;46975;51.898;11.444;2022-12-18T01:19:13;-8.90;99.90
61092;DHT22;46975;51.898;11.444;2022-12-18T01:21:38;-8.90;99.90
61092;DHT22;46975;51.898;11.444;2022-12-18T01:24:04;-8.80;99.90
61092;DHT22;46975;51.898;11.444;2022-12-18T01:26:30;-8.90;99.90
61092;DHT22;46975;51.898;11.444;2022-12-18T01:28:56;-8.90;99.90
61092;DHT22;46975;51.898;11.444;2022-12-18T01:31:26;-8.90;99.90
61092;DHT22;46975;51.898;11.444;2022-12-18T01:33:53;-8.80;99.90
61092;DHT22;46975;51.898;11.444;2022-12-18T01:36:24;-8.80;99.90
61092;DHT22;46975;51.898;11.444;2022-12-18T01:38:51;-8.80;99.90
61092;DHT22;46975;51.898;11.444;2022-12-18T01:41:25;-8.90;99.90
61092;DHT22;46975;51.898;11.444;2022-12-18T01:46:20;-8.90;99.90
61092;DHT22;46975;51.898;11.444;2022-12-18T01:48:53;-9.00;99.90
61092;DHT22;46975;51.898;11.444;2022-12-18T01:51:19;-9.00;99.90
61092;DHT22;46975;51.898;11.444;2022-12-18T01:53:46;-9.00;99.90
61092;DHT22;46975;51.898;11.444;2022-12-18T01:56:14;-9.00;99.90
61092;DHT22;46975;51.898;11.444;2022-12-18T01:58:58;-9.00;99.90
61092;DHT22;46975;51.898;11.444;2022-12-18T02:01:25;-9.10;99.90
61092;DHT22;46975;51.898;11.444;2022-12-18T02:03:52;-9.10;99.90
61092;DHT22;46975;51.898;11.444;2022-12-18T02:06:23;-9.00;99.90
61092;DHT22;46975;51.898;11.444;2022-12-18T02:09:14;-9.10;99.90
61092;DHT22;46975;51.898;11.444;2022-12-18T02:11:59;-9.00;99.90
61092;DHT22;46975;51.898;11.444;2022-12-18T02:15:25;-9.10;99.90
61092;DHT22;46975;51.898;11.444;2022-12-18T02:28:20;-9.10;99.90
61092;DHT22;46975;51.898;11.444;2022-12-18T02:30:48;-9.20;99.90
61092;DHT22;46975;51.898;11.444;2022-12-18T02:33:17;-9.20;99.90
61092;DHT22;46975;51.898;11.444;2022-12-18T02:35:44;-9.30;99.90
61092;DHT22;46975;51.898;11.444;2022-12-18T02:38:11;-9.20;99.90
61092;DHT22;46975;51.898;11.444;2022-12-18T02:40:38;-9.20;99.90
61092;DHT22;46975;51.898;11.444;2022-12-18T02:43:12;-9.20;99.90
61092;DHT22;46975;51.898;11.444;2022-12-18T02:45:56;-9.20;99.90
61092;DHT22;46975;51.898;11.444;2022-12-18T02:48:26;-9.10;99.90
61092;DHT22;46975;51.898;11.444;2022-12-18T02:51:36;-9.20;99.90
61092;DHT22;46975;51.898;11.444;2022-12-18T02:54:10;-9.20;99.90
61092;DHT22;46975;51.898;11.444;2022-12-18T02:56:46;-9.20;99.90
61092;DHT22;46975;51.898;11.444;2022-12-18T02:59:19;-9.30;99.90
61092;DHT22;46975;51.898;11.444;2022-12-18T03:01:58;-9.30;99.90
61092;DHT22;46975;51.898;11.444;2022-12-18T03:04:43;-9.40;99.90
61092;DHT22;46975;51.898;11.444;2022-12-18T03:07:15;-9.30;99.90
61092;DHT22;46975;51.898;11.444;2022-12-18T03:09:44;-9.30;99.90
61092;DHT22;46975;51.898;11.444;2022-12-18T03:12:27;-9.30;99.90
61092;DHT22;46975;51.898;11.444;2022-12-18T03:15:28;-9.30;99.90
61092;DHT22;46975;51.898;11.444;2022-12-18T03:17:55;-9.30;99.90
61092;DHT22;46975;51.898;11.444;2022-12-18T03:20:23;-9.30;99.90
61092;DHT22;46975;51.898;11.444;2022-12-18T03:22:56;-9.40;99.90
61092;DHT22;46975;51.898;11.444;2022-12-18T03:25:25;-9.40;99.90
61092;DHT22;46975;51.898;11.444;2022-12-18T03:27:56;-9.40;99.90
61092;DHT22;46975;51.898;11.444;2022-12-18T03:30:23;-9.40;99.90
61092;DHT22;46975;51.898;11.444;2022-12-18T03:33:12;-9.40;99.90
61092;DHT22;46975;51.898;11.444;2022-12-18T03:35:41;-9.40;99.90
61092;DHT22;46975;51.898;11.444;2022-12-18T03:38:09;-9.40;99.90
61092;DHT22;46975;51.898;11.444;2022-12-18T03:41:08;-9.50;99.90
61092;DHT22;46975;51.898;11.444;2022-12-18T03:43:45;-9.40;99.90
61092;DHT22;46975;51.898;11.444;2022-12-18T03:46:24;-9.50;99.90
61092;DHT22;46975;51.898;11.444;2022-12-18T03:49:01;-9.50;99.90
61092;DHT22;46975;51.898;11.444;2022-12-18T03:54:06;-9.60;99.90
61092;DHT22;46975;51.898;11.444;2022-12-18T03:56:43;-9.60;99.90
61092;DHT22;46975;51.898;11.444;2022-12-18T03:59:12;-9.50;99.90
61092;DHT22;46975;51.898;11.444;2022-12-18T04:01:45;-9.40;99.90
61092;DHT22;46975;51.898;11.444;2022-12-18T04:04:12;-9.50;99.90
61092;DHT22;46975;51.898;11.444;2022-12-18T04:06:39;-9.50;99.90
61092;DHT22;46975;51.898;11.444;2022-12-18T04:09:06;-9.50;99.90
61092;DHT22;46975;51.898;11.444;2022-12-18T04:11:31;-9.60;99.90
61092;DHT22;46975;51.898;11.444;2022-12-18T04:13:58;-9.60;99.90
61092;DHT22;46975;51.898;11.444;2022-12-18T04:16:25;-9.50;99.90
61092;DHT22;46975;51.898;11.444;2022-12-18T04:18:50;-9.60;99.90
61092;DHT22;46975;51.898;11.444;2022-12-18T04:21:16;-9.50;99.90
61092;DHT22;46975;51.898;11.444;2022-12-18T04:23:41;-9.50;99.90
61092;DHT22;46975;51.898;11.444;2022-12-18T04:26:07;-9.60;99.90
61092;DHT22;46975;51.898;11.444;2022-12-18T04:28:33;-9.60;99.90
61092;DHT22;46975;51.898;11.444;2022-12-18T04:30:58;-9.50;99.90
61092;DHT22;46975;51.898;11.444;2022-12-18T04:33:24;-9.50;99.90
61092;DHT22;46975;51.898;11.444;2022-12-18T04:35:50;-9.50;99.90
61092;DHT22;46975;51.898;11.444;2022-12-18T04:38:16;-9.50;99.90
61092;DHT22;46975;51.898;11.444;2022-12-18T04:40:42;-9.50;99.90
61092;DHT22;46975;51.898;11.444;2022-12-18T04:43:08;-9.40;99.90
61092;DHT22;46975;51.898;11.444;2022-12-18T04:45:34;-9.50;99.90
61092;DHT22;46975;51.898;11.444;2022-12-18T04:48:01;-9.50;99.90
61092;DHT22;46975;51.898;11.444;2022-12-18T04:50:28;-9.50;99.90
61092;DHT22;46975;51.898;11.444;2022-12-18T04:52:53;-9.40;99.90
61092;DHT22;46975;51.898;11.444;2022-12-18T04:55:19;-9.40;99.90
61092;DHT22;46975;51.898;11.444;2022-12-18T04:57:45;-9.40;99.90
61092;DHT22;46975;51.898;11.444;2022-12-18T05:00:11;-9.50;99.90
61092;DHT22;46975;51.898;11.444;2022-12-18T05:02:37;-9.50;99.90
61092;DHT22;46975;51.898;11.444;2022-12-18T05:05:02;-9.50;99.90
61092;DHT22;46975;51.898;11.444;2022-12-18T05:07:28;-9.50;99.90
61092;DHT22;46975;51.898;11.444;2022-12-18T05:09:55;-9.50;99.90
61092;DHT22;46975;51.898;11.444;2022-12-18T05:12:20;-9.60;99.90
61092;DHT22;46975;51.898;11.444;2022-12-18T05:14:46;-9.60;99.90
61092;DHT22;46975;51.898;11.444;2022-12-18T05:17:12;-9.60;99.90
61092;DHT22;46975;51.898;11.444;2022-12-18T05:19:37;-9.70;99.90
61092;DHT22;46975;51.898;11.444;2022-12-18T05:22:03;-9.60;99.90
61092;DHT22;46975;51.898;11.444;2022-12-18T05:24:29;-9.70;99.90
61092;DHT22;46975;51.898;11.444;2022-12-18T05:26:54;-9.70;99.90
61092;DHT22;46975;51.898;11.444;2022-12-18T05:29:20;-9.70;99.90
61092;DHT22;46975;51.898;11.444;2022-12-18T05:31:45;-9.60;99.90
61092;DHT22;46975;51.898;11.444;2022-12-18T05:34:11;-9.60;99.90
61092;DHT22;46975;51.898;11.444;2022-12-18T05:36:37;-9.60;99.90
61092;DHT22;46975;51.898;11.444;2022-12-18T05:39:03;-9.80;99.90
61092;DHT22;46975;51.898;11.444;2022-12-18T05:41:29;-9.80;99.90
61092;DHT22;46975;51.898;11.444;2022-12-18T05:43:54;-9.70;99.90
61092;DHT22;46975;51.898;11.444;2022-12-18T05:46:20;-9.80;99.90
61092;DHT22;46975;51.898;11.444;2022-12-18T05:48:46;-9.80;99.90
61092;DHT22;46975;51.898;11.444;2022-12-18T05:51:15;-9.80;99.90
61092;DHT22;46975;51.898;11.444;2022-12-18T05:53:42;-9.80;99.90
61092;DHT22;46975;51.898;11.444;2022-12-18T05:56:10;-9.80;99.90
61092;DHT22;46975;51.898;11.444;2022-12-18T05:58:36;-9.70;99.90
61092;DHT22;46975;51.898;11.444;2022-12-18T06:01:17;-9.60;99.90
61092;DHT22;46975;51.898;11.444;2022-12-18T06:03:43;-9.60;99.90
61092;DHT22;46975;51.898;11.444;2022-12-18T06:08:39;-9.50;99.90
61092;DHT22;46975;51.898;11.444;2022-12-18T06:11:04;-9.40;99.90
61092;DHT22;46975;51.898;11.444;2022-12-18T06:13:30;-9.40;99.90
61092;DHT22;46975;51.898;11.444;2022-12-18T06:15:56;-9.30;99.90
61092;DHT22;46975;51.898;11.444;2022-12-18T06:18:21;-9.30;99.90
61092;DHT22;46975;51.898;11.444;2022-12-18T06:20:57;-9.30;99.90
61092;DHT22;46975;51.898;11.444;2022-12-18T06:23:23;-9.30;99.90
61092;DHT22;46975;51.898;11.444;2022-12-18T06:25:49;-9.30;99.90
61092;DHT22;46975;51.898;11.444;2022-12-18T06:28:15;-9.40;99.90
61092;DHT22;46975;51.898;11.444;2022-12-18T06:30:43;-9.50;99.90
61092;DHT22;46975;51.898;11.444;2022-12-18T06:33:09;-9.60;99.90
61092;DHT22;46975;51.898;11.444;2022-12-18T06:35:35;-9.60;99.90
61092;DHT22;46975;51.898;11.444;2022-12-18T06:38:02;-9.70;99.90
61092;DHT22;46975;51.898;11.444;2022-12-18T06:40:28;-9.60;99.90
61092;DHT22;46975;51.898;11.444;2022-12-18T06:42:53;-9.70;99.90
61092;DHT22;46975;51.898;11.444;2022-12-18T06:45:19;-9.60;99.90
61092;DHT22;46975;51.898;11.444;2022-12-18T06:47:44;-9.70;99.90
61092;DHT22;46975;51.898;11.444;2022-12-18T06:50:11;-9.70;99.90
61092;DHT22;46975;51.898;11.444;2022-12-18T06:52:37;-9.70;99.90
61092;DHT22;46975;51.898;11.444;2022-12-18T06:55:02;-9.70;99.90
61092;DHT22;46975;51.898;11.444;2022-12-18T06:57:28;-9.70;99.90
61092;DHT22;46975;51.898;11.444;2022-12-18T06:59:54;-9.70;99.90
61092;DHT22;46975;51.898;11.444;2022-12-18T07:02:20;-9.60;99.90
61092;DHT22;46975;51.898;11.444;2022-12-18T07:04:45;-9.70;99.90
61092;DHT22;46975;51.898;11.444;2022-12-18T07:07:11;-9.80;99.90
61092;DHT22;46975;51.898;11.444;2022-12-18T07:09:36;-9.90;99.90
61092;DHT22;46975;51.898;11.444;2022-12-18T07:12:02;-9.90;99.90
61092;DHT22;46975;51.898;11.444;2022-12-18T07:14:30;-9.90;99.90
61092;DHT22;46975;51.898;11.444;2022-12-18T07:16:55;-9.90;99.90
61092;DHT22;46975;51.898;11.444;2022-12-18T07:19:21;-9.80;99.90
61092;DHT22;46975;51.898;11.444;2022-12-18T07:21:47;-9.80;99.90
61092;DHT22;46975;51.898;11.444;2022-12-18T07:24:12;-9.80;99.90
61092;DHT22;46975;51.898;11.444;2022-12-18T07:26:38;-9.90;99.90
61092;DHT22;46975;51.898;11.444;2022-12-18T07:29:03;-9.90;99.90
61092;DHT22;46975;51.898;11.444;2022-12-18T07:31:29;-9.90;99.90
61092;DHT22;46975;51.898;11.444;2022-12-18T07:33:55;-9.80;99.90
61092;DHT22;46975;51.898;11.444;2022-12-18T07:36:23;-9.80;99.90
61092;DHT22;46975;51.898;11.444;2022-12-18T07:38:50;-9.70;99.90
61092;DHT22;46975;51.898;11.444;2022-12-18T07:41:16;-9.70;99.90
61092;DHT22;46975;51.898;11.444;2022-12-18T07:43:44;-9.60;99.90
61092;DHT22;46975;51.898;11.444;2022-12-18T07:46:11;-9.70;99.90
61092;DHT22;46975;51.898;11.444;2022-12-18T07:48:39;-9.60;99.90
61092;DHT22;46975;51.898;11.444;2022-12-18T07:51:06;-9.50;99.90
61092;DHT22;46975;51.898;11.444;2022-12-18T07:53:33;-9.60;99.90
61092;DHT22;46975;51.898;11.444;2022-12-18T07:56:00;-9.70;99.90
61092;DHT22;46975;51.898;11.444;2022-12-18T07:58:27;-9.60;99.90
61092;DHT22;46975;51.898;11.444;2022-12-18T08:00:52;-9.70;99.90
61092;DHT22;46975;51.898;11.444;2022-12-18T08:03:19;-9.60;99.90
61092;DHT22;46975;51.898;11.444;2022-12-18T08:05:44;-9.70;99.90
61092;DHT22;46975;51.898;11.444;2022-12-18T08:08:10;-9.60;99.90
61092;DHT22;46975;51.898;11.444;2022-12-18T08:10:36;-9.50;99.90
61092;DHT22;46975;51.898;11.444;2022-12-18T08:13:02;-9.60;99.90
61092;DHT22;46975;51.898;11.444;2022-12-18T08:15:28;-9.60;99.90
61092;DHT22;46975;51.898;11.444;2022-12-18T08:17:56;-9.60;99.90
61092;DHT22;46975;51.898;11.444;2022-12-18T08:20:22;-9.50;99.90
61092;DHT22;46975;51.898;11.444;2022-12-18T08:22:48;-9.60;99.90
61092;DHT22;46975;51.898;11.444;2022-12-18T08:25:13;-9.50;99.90
61092;DHT22;46975;51.898;11.444;2022-12-18T08:27:39;-9.50;99.90
61092;DHT22;46975;51.898;11.444;2022-12-18T08:30:05;-9.40;99.90
61092;DHT22;46975;51.898;11.444;2022-12-18T08:32:31;-9.40;99.90
61092;DHT22;46975;51.898;11.444;2022-12-18T08:34:58;-9.30;99.90
61092;DHT22;46975;51.898;11.444;2022-12-18T08:37:24;-9.20;99.90
61092;DHT22;46975;51.898;11.444;2022-12-18T08:39:49;-9.10;99.90
61092;DHT22;46975;51.898;11.444;2022-12-18T08:42:15;-9.10;99.90
61092;DHT22;46975;51.898;11.444;2022-12-18T08:45:00;-9.00;99.90
61092;DHT22;46975;51.898;11.444;2022-12-18T08:47:25;-8.90;99.90
61092;DHT22;46975;51.898;11.444;2022-12-18T08:49:51;-8.90;99.90
61092;DHT22;46975;51.898;11.444;2022-12-18T08:52:17;-8.90;99.90
61092;DHT22;46975;51.898;11.444;2022-12-18T08:54:43;-8.80;99.90
61092;DHT22;46975;51.898;11.444;2022-12-18T08:57:08;-8.80;99.90
61092;DHT22;46975;51.898;11.444;2022-12-18T08:59:34;-8.80;99.90
61092;DHT22;46975;51.898;11.444;2022-12-18T09:02:00;-8.70;99.90
61092;DHT22;46975;51.898;11.444;2022-12-18T09:04:25;-8.60;99.90
61092;DHT22;46975;51.898;11.444;2022-12-18T09:06:51;-8.60;99.90
61092;DHT22;46975;51.898;11.444;2022-12-18T09:09:17;-8.60;99.90
61092;DHT22;46975;51.898;11.444;2022-12-18T09:11:42;-8.60;99.90
61092;DHT22;46975;51.898;11.444;2022-12-18T09:14:09;-8.60;99.90
61092;DHT22;46975;51.898;11.444;2022-12-18T09:16:34;-8.60;99.90
61092;DHT22;46975;51.898;11.444;2022-12-18T09:19:01;-8.60;99.90
61092;DHT22;46975;51.898;11.444;2022-12-18T09:21:33;-8.50;99.90
61092;DHT22;46975;51.898;11.444;2022-12-18T09:23:59;-8.40;99.90
61092;DHT22;46975;51.898;11.444;2022-12-18T09:26:26;-8.40;99.90
61092;DHT22;46975;51.898;11.444;2022-12-18T09:28:52;-8.40;99.90
61092;DHT22;46975;51.898;11.444;2022-12-18T09:31:20;-8.40;99.90
61092;DHT22;46975;51.898;11.444;2022-12-18T09:33:46;-8.30;99.90
61092;DHT22;46975;51.898;11.444;2022-12-18T09:36:14;-8.20;99.90
61092;DHT22;46975;51.898;11.444;2022-12-18T09:38:40;-8.20;99.90
61092;DHT22;46975;51.898;11.444;2022-12-18T09:41:42;-8.10;99.90
61092;DHT22;46975;51.898;11.444;2022-12-18T09:44:27;-8.00;99.90
61092;DHT22;46975;51.898;11.444;2022-12-18T09:47:27;-7.90;99.90
61092;DHT22;46975;51.898;11.444;2022-12-18T09:50:01;-7.90;99.90
61092;DHT22;46975;51.898;11.444;2022-12-18T09:52:33;-7.80;99.90
61092;DHT22;46975;51.898;11.444;2022-12-18T09:57:45;-7.70;99.90
61092;DHT22;46975;51.898;11.444;2022-12-18T10:00:19;-7.70;99.90
61092;DHT22;46975;51.898;11.444;2022-12-18T10:02:46;-7.50;99.90
61092;DHT22;46975;51.898;11.444;2022-12-18T10:05:17;-7.50;99.90
61092;DHT22;46975;51.898;11.444;2022-12-18T10:10:27;-7.40;99.90
61092;DHT22;46975;51.898;11.444;2022-12-18T10:13:23;-7.30;99.90
61092;DHT22;46975;51.898;11.444;2022-12-18T10:16:13;-7.10;99.90
61092;DHT22;46975;51.898;11.444;2022-12-18T10:21:56;-6.90;99.90
61092;DHT22;46975;51.898;11.444;2022-12-18T10:24:49;-6.90;99.90
61092;DHT22;46975;51.898;11.444;2022-12-18T10:27:23;-6.80;99.90
61092;DHT22;46975;51.898;11.444;2022-12-18T10:29:50;-6.70;99.90
61092;DHT22;46975;51.898;11.444;2022-12-18T10:32:20;-6.60;99.90
61092;DHT22;46975;51.898;11.444;2022-12-18T10:34:51;-6.60;99.90
61092;DHT22;46975;51.898;11.444;2022-12-18T10:37:19;-6.50;99.90
61092;DHT22;46975;51.898;11.444;2022-12-18T10:39:46;-6.50;99.90
61092;DHT22;46975;51.898;11.444;2022-12-18T10:42:19;-6.40;99.90
61092;DHT22;46975;51.898;11.444;2022-12-18T10:44:45;-6.40;99.90
61092;DHT22;46975;51.898;11.444;2022-12-18T10:47:15;-6.30;99.90
61092;DHT22;46975;51.898;11.444;2022-12-18T10:49:49;-6.30;99.90
61092;DHT22;46975;51.898;11.444;2022-12-18T10:52:23;-6.20;99.90
61092;DHT22;46975;51.898;11.444;2022-12-18T10:54:59;-6.10;99.90
61092;DHT22;46975;51.898;11.444;2022-12-18T10:57:38;-6.20;99.90
61092;DHT22;46975;51.898;11.444;2022-12-18T11:00:28;-6.20;99.90
61092;DHT22;46975;51.898;11.444;2022-12-18T11:02:55;-6.10;99.90
61092;DHT22;46975;51.898;11.444;2022-12-18T11:05:30;-6.10;99.90
61092;DHT22;46975;51.898;11.444;2022-12-18T11:07:57;-6.00;99.90
61092;DHT22;46975;51.898;11.444;2022-12-18T11:10:36;-6.00;99.90
61092;DHT22;46975;51.898;11.444;2022-12-18T11:13:16;-6.00;99.90
61092;DHT22;46975;51.898;11.444;2022-12-18T11:15:43;-6.00;99.90
61092;DHT22;46975;51.898;11.444;2022-12-18T11:18:29;-6.10;99.90
61092;DHT22;46975;51.898;11.444;2022-12-18T11:20:59;-6.00;99.90
61092;DHT22;46975;51.898;11.444;2022-12-18T11:23:26;-5.90;99.90
61092;DHT22;46975;51.898;11.444;2022-12-18T11:25:58;-5.90;99.90
61092;DHT22;46975;51.898;11.444;2022-12-18T11:31:26;-5.70;99.90
61092;DHT22;46975;51.898;11.444;2022-12-18T11:34:16;-5.60;99.90
61092;DHT22;46975;51.898;11.444;2022-12-18T11:36:46;-5.50;99.90
61092;DHT22;46975;51.898;11.444;2022-12-18T11:39:26;-5.60;99.90
61092;DHT22;46975;51.898;11.444;2022-12-18T11:42:09;-5.60;99.90
61092;DHT22;46975;51.898;11.444;2022-12-18T11:44:55;-5.50;99.90
61092;DHT22;46975;51.898;11.444;2022-12-18T11:47:38;-5.40;99.90
61092;DHT22;46975;51.898;11.444;2022-12-18T11:50:16;-5.40;99.90
61092;DHT22;46975;51.898;11.444;2022-12-18T11:52:42;-5.30;99.90
61092;DHT22;46975;51.898;11.444;2022-12-18T12:00:43;-5.30;99.90
61092;DHT22;46975;51.898;11.444;2022-12-18T12:06:38;-5.30;99.90
61092;DHT22;46975;51.898;11.444;2022-12-18T12:17:40;-5.20;99.90
61092;DHT22;46975;51.898;11.444;2022-12-18T12:25:50;-5.10;99.90
61092;DHT22;46975;51.898;11.444;2022-12-18T12:34:33;-4.90;99.90
61092;DHT22;46975;51.898;11.444;2022-12-18T12:39:39;-4.60;99.90
61092;DHT22;46975;51.898;11.444;2022-12-18T12:42:15;-4.40;99.90
61092;DHT22;46975;51.898;11.444;2022-12-18T12:45:05;-4.30;99.90
61092;DHT22;46975;51.898;11.444;2022-12-18T12:47:36;-4.30;99.90
61092;DHT22;46975;51.898;11.444;2022-12-18T12:50:05;-4.30;99.90
61092;DHT22;46975;51.898;11.444;2022-12-18T12:52:35;-4.30;99.90
61092;DHT22;46975;51.898;11.444;2022-12-18T12:55:06;-4.30;99.90
61092;DHT22;46975;51.898;11.444;2022-12-18T12:57:37;-4.40;99.90
61092;DHT22;46975;51.898;11.444;2022-12-18T13:00:08;-4.40;99.90
61092;DHT22;46975;51.898;11.444;2022-12-18T13:05:30;-4.40;99.90
61092;DHT22;46975;51.898;11.444;2022-12-18T13:08:03;-4.50;99.90
61092;DHT22;46975;51.898;11.444;2022-12-18T13:15:40;-4.60;99.90
61092;DHT22;46975;51.898;11.444;2022-12-18T13:20:37;-4.70;99.90
61092;DHT22;46975;51.898;11.444;2022-12-18T13:25:56;-4.80;99.90
61092;DHT22;46975;51.898;11.444;2022-12-18T13:34:25;-5.00;99.90
61092;DHT22;46975;51.898;11.444;2022-12-18T13:36:52;-5.00;99.90
61092;DHT22;46975;51.898;11.444;2022-12-18T13:41:48;-5.10;99.90
61092;DHT22;46975;51.898;11.444;2022-12-18T13:44:37;-5.10;99.90
61092;DHT22;46975;51.898;11.444;2022-12-18T13:49:52;-5.20;99.90
61092;DHT22;46975;51.898;11.444;2022-12-18T13:52:24;-5.20;99.90
61092;DHT22;46975;51.898;11.444;2022-12-18T13:54:55;-5.20;99.90
61092;DHT22;46975;51.898;11.444;2022-12-18T13:59:55;-5.20;99.90
61092;DHT22;46975;51.898;11.444;2022-12-18T14:02:24;-5.20;99.90
61092;DHT22;46975;51.898;11.444;2022-12-18T14:04:50;-5.20;99.90
61092;DHT22;46975;51.898;11.444;2022-12-18T14:07:27;-5.20;99.90
61092;DHT22;46975;51.898;11.444;2022-12-18T14:09:55;-5.30;99.90
61092;DHT22;46975;51.898;11.444;2022-12-18T14:12:25;-5.30;99.90
61092;DHT22;46975;51.898;11.444;2022-12-18T14:15:38;-5.30;99.90
61092;DHT22;46975;51.898;11.444;2022-12-18T14:21:02;-5.30;99.90
61092;DHT22;46975;51.898;11.444;2022-12-18T14:23:34;-5.40;99.90
61092;DHT22;46975;51.898;11.444;2022-12-18T14:26:20;-5.40;99.90
61092;DHT22;46975;51.898;11.444;2022-12-18T14:28:47;-5.40;99.90
61092;DHT22;46975;51.898;11.444;2022-12-18T14:31:24;-5.40;99.90
61092;DHT22;46975;51.898;11.444;2022-12-18T14:33:51;-5.40;99.90
61092;DHT22;46975;51.898;11.444;2022-12-18T14:36:28;-5.40;99.90
61092;DHT22;46975;51.898;11.444;2022-12-18T14:38:56;-5.40;99.90
61092;DHT22;46975;51.898;11.444;2022-12-18T14:41:23;-5.40;99.90
61092;DHT22;46975;51.898;11.444;2022-12-18T14:43:52;-5.50;99.90
61092;DHT22;46975;51.898;11.444;2022-12-18T14:49:21;-5.50;99.90
61092;DHT22;46975;51.898;11.444;2022-12-18T14:51:49;-5.40;99.90
61092;DHT22;46975;51.898;11.444;2022-12-18T14:54:18;-5.50;99.90
61092;DHT22;46975;51.898;11.444;2022-12-18T14:56:46;-5.40;99.90
61092;DHT22;46975;51.898;11.444;2022-12-18T14:59:31;-5.40;99.90
61092;DHT22;46975;51.898;11.444;2022-12-18T15:02:15;-5.40;99.90
61092;DHT22;46975;51.898;11.444;2022-12-18T15:04:44;-5.40;99.90
61092;DHT22;46975;51.898;11.444;2022-12-18T15:07:14;-5.40;99.90
61092;DHT22;46975;51.898;11.444;2022-12-18T15:09:44;-5.50;99.90
61092;DHT22;46975;51.898;11.444;2022-12-18T15:12:25;-5.50;99.90
61092;DHT22;46975;51.898;11.444;2022-12-18T15:14:51;-5.50;99.90
61092;DHT22;46975;51.898;11.444;2022-12-18T15:17:19;-5.50;99.90
61092;DHT22;46975;51.898;11.444;2022-12-18T15:19:46;-5.40;99.90
61092;DHT22;46975;51.898;11.444;2022-12-18T15:22:22;-5.50;99.90
61092;DHT22;46975;51.898;11.444;2022-12-18T15:24:50;-5.50;99.90
61092;DHT22;46975;51.898;11.444;2022-12-18T15:32:39;-5.50;99.90
61092;DHT22;46975;51.898;11.444;2022-12-18T15:37:40;-5.60;99.90
61092;DHT22;46975;51.898;11.444;2022-12-18T15:40:08;-5.60;99.90
61092;DHT22;46975;51.898;11.444;2022-12-18T15:42:36;-5.60;99.90
61092;DHT22;46975;51.898;11.444;2022-12-18T15:45:21;-5.60;99.90
61092;DHT22;46975;51.898;11.444;2022-12-18T15:47:46;-5.60;99.90
61092;DHT22;46975;51.898;11.444;2022-12-18T15:50:12;-5.60;99.90
61092;DHT22;46975;51.898;11.444;2022-12-18T15:52:45;-5.60;99.90
61092;DHT22;46975;51.898;11.444;2022-12-18T15:55:16;-5.60;99.90
61092;DHT22;46975;51.898;11.444;2022-12-18T15:58:01;-5.60;99.90
61092;DHT22;46975;51.898;11.444;2022-12-18T16:00:27;-5.50;99.90
61092;DHT22;46975;51.898;11.444;2022-12-18T16:02:53;-5.50;99.90
61092;DHT22;46975;51.898;11.444;2022-12-18T16:05:20;-5.50;99.90
61092;DHT22;46975;51.898;11.444;2022-12-18T16:07:47;-5.50;99.90
61092;DHT22;46975;51.898;11.444;2022-12-18T16:10:13;-5.50;99.90
61092;DHT22;46975;51.898;11.444;2022-12-18T16:12:39;-5.50;99.90
61092;DHT22;46975;51.898;11.444;2022-12-18T16:15:05;-5.50;99.90
61092;DHT22;46975;51.898;11.444;2022-12-18T16:17:32;-5.50;99.90
61092;DHT22;46975;51.898;11.444;2022-12-18T16:19:58;-5.60;99.90
61092;DHT22;46975;51.898;11.444;2022-12-18T16:22:25;-5.50;99.90
61092;DHT22;46975;51.898;11.444;2022-12-18T16:24:52;-5.60;99.90
61092;DHT22;46975;51.898;11.444;2022-12-18T16:27:19;-5.60;99.90
61092;DHT22;46975;51.898;11.444;2022-12-18T16:29:45;-5.60;99.90
61092;DHT22;46975;51.898;11.444;2022-12-18T16:32:21;-5.60;99.90
61092;DHT22;46975;51.898;11.444;2022-12-18T16:34:47;-5.60;99.90
61092;DHT22;46975;51.898;11.444;2022-12-18T16:37:14;-5.60;99.90
61092;DHT22;46975;51.898;11.444;2022-12-18T16:39:40;-5.60;99.90
61092;DHT22;46975;51.898;11.444;2022-12-18T16:44:37;-5.70;99.90
61092;DHT22;46975;51.898;11.444;2022-12-18T16:47:03;-5.70;99.90
61092;DHT22;46975;51.898;11.444;2022-12-18T16:49:30;-5.60;99.90
61092;DHT22;46975;51.898;11.444;2022-12-18T16:51:55;-5.60;99.90
61092;DHT22;46975;51.898;11.444;2022-12-18T16:54:21;-5.70;99.90
61092;DHT22;46975;51.898;11.444;2022-12-18T16:56:47;-5.60;99.90
61092;DHT22;46975;51.898;11.444;2022-12-18T16:59:16;-5.60;99.90
61092;DHT22;46975;51.898;11.444;2022-12-18T17:01:42;-5.60;99.90
61092;DHT22;46975;51.898;11.444;2022-12-18T17:04:08;-5.60;99.90
61092;DHT22;46975;51.898;11.444;2022-12-18T17:06:38;-5.60;99.90
61092;DHT22;46975;51.898;11.444;2022-12-18T17:09:10;-5.50;99.90
61092;DHT22;46975;51.898;11.444;2022-12-18T17:11:36;-5.50;99.90
61092;DHT22;46975;51.898;11.444;2022-12-18T17:14:12;-5.50;99.90
61092;DHT22;46975;51.898;11.444;2022-12-18T17:16:38;-5.40;99.90